createdAt,value
2019-02-06T00:01:10.261Z,32.73
2019-02-06T00:03:38.488Z,32.83
2019-02-06T00:06:07.134Z,35.10
2019-02-06T00:08:35.329Z,34.10
2019-02-06T00:11:03.535Z,34.57
2019-02-06T00:13:32.079Z,34.20
2019-02-06T00:16:00.295Z,34.67
2019-02-06T00:18:28.471Z,34.17
2019-02-06T00:20:56.729Z,34.43
2019-02-06T00:23:24.921Z,34.87
2019-02-06T00:25:53.140Z,34.70
2019-02-06T00:28:21.329Z,34.73
2019-02-06T00:30:49.892Z,34.37
2019-02-06T00:33:18.089Z,33.03
2019-02-06T00:35:46.277Z,33.57
2019-02-06T00:38:14.461Z,34.07
2019-02-06T00:40:42.646Z,33.80
2019-02-06T00:43:10.833Z,34.57
2019-02-06T00:45:39.013Z,33.80
2019-02-06T00:48:07.206Z,33.67
2019-02-06T00:50:35.395Z,34.23
2019-02-06T00:53:03.697Z,33.47
2019-02-06T00:55:31.882Z,34.23
2019-02-06T00:58:00.134Z,34.27
2019-02-06T01:00:28.318Z,34.20
2019-02-06T01:02:56.887Z,34.43
2019-02-06T01:05:25.074Z,34.97
2019-02-06T01:07:53.263Z,34.70
2019-02-06T01:10:21.530Z,33.67
2019-02-06T01:12:49.729Z,34.63
2019-02-06T01:15:17.913Z,34.33
2019-02-06T01:17:46.118Z,37.07
2019-02-06T01:20:17.200Z,35.60
2019-02-06T01:22:45.390Z,36.63
2019-02-06T01:25:17.705Z,35.53
2019-02-06T01:27:45.885Z,36.93
2019-02-06T01:30:17.482Z,37.57
2019-02-06T01:32:45.675Z,33.60
2019-02-06T01:35:14.609Z,36.40
2019-02-06T01:37:42.830Z,37.00
2019-02-06T01:40:14.022Z,36.00
2019-02-06T01:42:42.300Z,38.47
2019-02-06T01:45:13.300Z,36.87
2019-02-06T01:47:41.497Z,38.00
2019-02-06T01:50:12.180Z,35.63
2019-02-06T01:52:40.436Z,37.63
2019-02-06T01:55:13.113Z,37.30
2019-02-06T01:57:41.293Z,36.17
2019-02-06T02:00:18.169Z,37.30
2019-02-06T02:02:46.350Z,31.80
2019-02-06T02:05:16.159Z,33.87
2019-02-06T02:07:44.343Z,32.80
2019-02-06T02:10:12.534Z,33.07
2019-02-06T02:12:40.722Z,31.60
2019-02-06T02:15:12.005Z,32.63
2019-02-06T02:17:40.199Z,32.40
2019-02-06T02:20:17.551Z,30.50
2019-02-06T02:22:45.737Z,32.47
2019-02-06T02:25:13.926Z,32.03
2019-02-06T02:27:42.196Z,32.40
2019-02-06T02:30:13.479Z,31.43
2019-02-06T02:32:41.663Z,30.80
2019-02-06T02:35:10.026Z,32.47
2019-02-06T02:37:38.210Z,30.40
2019-02-06T02:40:09.134Z,32.67
2019-02-06T02:42:37.396Z,32.70
2019-02-06T02:45:11.693Z,31.87
2019-02-06T02:47:39.872Z,31.37
2019-02-06T02:50:10.109Z,33.77
2019-02-06T02:52:38.282Z,32.87
2019-02-06T02:55:08.715Z,31.80
2019-02-06T02:57:36.902Z,33.40
2019-02-06T03:00:18.017Z,32.70
2019-02-06T03:03:04.125Z,33.97
2019-02-06T03:05:33.877Z,35.27
2019-02-06T03:08:02.061Z,36.03
2019-02-06T03:10:30.256Z,33.83
2019-02-06T03:12:58.437Z,34.17
2019-02-06T03:15:26.637Z,35.37
2019-02-06T03:17:54.827Z,32.93
2019-02-06T03:20:23.025Z,34.30
2019-02-06T03:22:51.207Z,33.40
2019-02-06T03:25:19.400Z,31.70
2019-02-06T03:27:47.595Z,32.90
2019-02-06T03:30:17.649Z,31.83
2019-02-06T03:32:45.839Z,34.30
2019-02-06T03:35:14.389Z,34.73
2019-02-06T03:37:42.587Z,33.20
2019-02-06T03:40:16.325Z,33.23
2019-02-06T03:42:44.522Z,32.43
2019-02-06T03:45:13.444Z,32.07
2019-02-06T03:47:41.632Z,32.07
2019-02-06T03:50:15.380Z,33.70
2019-02-06T03:52:43.583Z,31.90
2019-02-06T03:55:12.452Z,34.83
2019-02-06T03:57:40.657Z,32.10
2019-02-06T04:00:14.645Z,32.37
2019-02-06T04:02:42.830Z,31.20
2019-02-06T04:05:11.845Z,29.30
2019-02-06T04:07:40.102Z,30.17
2019-02-06T04:10:13.775Z,31.43
2019-02-06T04:12:41.958Z,32.70
2019-02-06T04:15:10.388Z,31.50
2019-02-06T04:17:38.593Z,29.40
2019-02-06T04:20:09.781Z,29.00
2019-02-06T04:22:38.012Z,29.87
2019-02-06T04:25:07.633Z,31.87
2019-02-06T04:27:35.802Z,30.83
2019-02-06T04:30:05.457Z,26.83
2019-02-06T04:32:33.661Z,28.93
2019-02-06T04:35:01.852Z,30.57
2019-02-06T04:37:30.036Z,30.30
2019-02-06T04:39:58.218Z,30.43
2019-02-06T04:42:26.424Z,28.93
2019-02-06T04:44:54.600Z,29.57
2019-02-06T04:47:23.178Z,29.70
2019-02-06T04:49:51.422Z,31.60
2019-02-06T04:52:19.649Z,31.07
2019-02-06T04:54:47.851Z,31.57
2019-02-06T04:57:16.042Z,30.30
2019-02-06T04:59:44.237Z,30.17
2019-02-06T05:02:12.416Z,32.93
2019-02-06T05:04:40.879Z,32.10
2019-02-06T05:07:18.767Z,30.60
2019-02-06T05:09:38.977Z,30.27
2019-02-06T05:12:09.585Z,30.80
2019-02-06T05:14:37.124Z,31.57
2019-02-06T05:17:05.323Z,30.50
2019-02-06T05:19:33.506Z,31.00
2019-02-06T05:22:01.971Z,32.27
2019-02-06T05:24:30.166Z,33.57
2019-02-06T05:26:58.339Z,31.57
2019-02-06T05:29:26.527Z,33.80
2019-02-06T05:31:54.730Z,33.43
2019-02-06T05:34:22.927Z,32.60
2019-02-06T05:36:51.195Z,32.17
2019-02-06T05:39:19.382Z,32.10
2019-02-06T05:41:47.568Z,32.83
2019-02-06T05:44:15.776Z,31.87
2019-02-06T05:46:44.020Z,32.83
2019-02-06T05:49:12.215Z,34.33
2019-02-06T05:51:40.391Z,34.50
2019-02-06T05:54:11.154Z,33.30
2019-02-06T05:56:38.497Z,33.27
2019-02-06T05:59:06.681Z,35.23
2019-02-06T06:01:34.884Z,35.03
2019-02-06T06:04:03.065Z,33.37
2019-02-06T06:06:31.256Z,34.70
2019-02-06T06:08:59.443Z,36.63
2019-02-06T06:11:27.638Z,48.42
2019-02-06T06:13:56.092Z,38.77
2019-02-06T06:16:24.279Z,36.40
2019-02-06T06:18:52.467Z,36.87
2019-02-06T06:21:20.651Z,34.73
2019-02-06T06:23:48.847Z,35.97
2019-02-06T06:26:17.055Z,37.53
2019-02-06T06:28:45.245Z,36.60
2019-02-06T06:31:13.803Z,35.23
2019-02-06T06:33:41.987Z,37.57
2019-02-06T06:36:10.179Z,34.93
2019-02-06T06:38:38.389Z,35.77
2019-02-06T06:41:06.609Z,35.23
2019-02-06T06:43:34.800Z,36.93
2019-02-06T06:46:03.047Z,36.23
2019-02-06T06:48:33.411Z,38.60
2019-02-06T06:51:01.609Z,37.40
2019-02-06T06:53:29.804Z,37.17
2019-02-06T06:55:57.983Z,37.13
2019-02-06T06:58:26.162Z,37.63
2019-02-06T07:00:55.337Z,38.80
2019-02-06T07:03:23.532Z,37.93
2019-02-06T07:05:51.729Z,38.83
2019-02-06T07:08:19.915Z,39.80
2019-02-06T07:10:48.106Z,41.27
2019-02-06T07:13:16.295Z,39.27
2019-02-06T07:15:44.477Z,37.20
2019-02-06T07:18:14.570Z,38.57
2019-02-06T07:20:43.046Z,39.53
2019-02-06T07:23:11.225Z,41.13
2019-02-06T07:25:39.406Z,38.80
2019-02-06T07:28:07.597Z,39.67
2019-02-06T07:30:36.221Z,40.23
2019-02-06T07:33:04.416Z,41.07
2019-02-06T07:35:32.603Z,41.63
2019-02-06T07:38:01.069Z,42.30
2019-02-06T07:40:29.277Z,41.30
2019-02-06T07:42:57.466Z,42.40
2019-02-06T07:45:25.649Z,44.30
2019-02-06T07:47:53.837Z,44.53
2019-02-06T07:50:30.357Z,42.23
2019-02-06T07:52:58.828Z,42.43
2019-02-06T07:55:27.011Z,43.23
2019-02-06T07:57:55.202Z,43.30
2019-02-06T08:00:23.386Z,42.93
2019-02-06T08:02:52.013Z,44.97
2019-02-06T08:05:21.314Z,43.40
2019-02-06T08:07:49.636Z,41.17
2019-02-06T08:10:20.166Z,39.40
2019-02-06T08:12:48.350Z,40.00
2019-02-06T08:15:17.772Z,40.17
2019-02-06T08:17:45.964Z,38.30
2019-02-06T08:20:16.486Z,40.77
2019-02-06T08:22:44.680Z,38.17
2019-02-06T08:25:15.639Z,33.73
2019-02-06T08:27:43.828Z,32.93
2019-02-06T08:30:20.568Z,28.87
2019-02-06T08:32:48.769Z,30.03
2019-02-06T08:35:16.950Z,29.60
2019-02-06T08:37:45.241Z,28.60
2019-02-06T08:40:16.160Z,28.87
2019-02-06T08:42:44.321Z,29.57
2019-02-06T08:45:15.055Z,33.47
2019-02-06T08:47:44.331Z,32.23
2019-02-06T08:50:20.429Z,33.23
2019-02-06T08:52:48.889Z,32.13
2019-02-06T08:55:22.261Z,34.30
2019-02-06T08:57:50.816Z,33.63
2019-02-06T09:00:24.461Z,33.83
2019-02-06T09:02:52.655Z,32.20
2019-02-06T09:05:20.840Z,33.60
2019-02-06T09:07:49.318Z,32.77
2019-02-06T09:10:23.485Z,31.73
2019-02-06T09:12:51.771Z,28.00
2019-02-06T09:15:19.953Z,27.30
2019-02-06T09:17:48.135Z,27.53
2019-02-06T09:20:19.018Z,27.47
2019-02-06T09:22:47.197Z,28.03
2019-02-06T09:25:21.075Z,34.83
2019-02-06T09:27:49.253Z,26.77
2019-02-06T09:30:19.476Z,25.27
2019-02-06T09:32:47.657Z,26.00
2019-02-06T09:35:16.189Z,26.37
2019-02-06T09:37:44.582Z,27.00
2019-02-06T09:40:18.056Z,28.73
2019-02-06T09:42:46.228Z,25.80
2019-02-06T09:45:14.941Z,25.57
2019-02-06T09:47:43.124Z,26.30
2019-02-06T09:50:29.146Z,27.60
2019-02-06T09:52:57.348Z,26.50
2019-02-06T09:55:25.538Z,25.20
2019-02-06T09:57:53.725Z,26.17
2019-02-06T10:00:27.669Z,27.07
2019-02-06T10:02:55.860Z,33.60
2019-02-06T10:05:24.319Z,28.40
2019-02-06T10:07:52.502Z,27.63
2019-02-06T10:10:22.428Z,27.00
2019-02-06T10:12:50.619Z,26.23
2019-02-06T10:15:21.041Z,25.50
2019-02-06T10:17:49.294Z,24.90
2019-02-06T10:20:20.116Z,24.27
2019-02-06T10:22:48.285Z,24.03
2019-02-06T10:25:16.465Z,27.30
2019-02-06T10:27:44.649Z,25.47
2019-02-06T10:30:18.913Z,27.13
2019-02-06T10:32:47.100Z,27.03
2019-02-06T10:35:15.659Z,28.67
2019-02-06T10:37:43.881Z,29.50
2019-02-06T10:40:12.279Z,30.77
2019-02-06T10:42:40.462Z,30.23
2019-02-06T10:45:16.864Z,29.80
2019-02-06T10:47:45.063Z,31.93
2019-02-06T10:50:17.025Z,29.67
2019-02-06T10:52:48.126Z,28.03
2019-02-06T10:55:15.117Z,25.37
2019-02-06T10:57:43.381Z,23.13
2019-02-06T11:00:17.578Z,22.30
2019-02-06T11:02:45.881Z,22.83
2019-02-06T11:05:14.664Z,23.23
2019-02-06T11:07:42.842Z,22.10
2019-02-06T11:10:14.069Z,26.23
2019-02-06T11:12:42.267Z,25.30
2019-02-06T11:15:11.677Z,27.00
2019-02-06T11:17:39.873Z,27.03
2019-02-06T11:20:17.504Z,28.47
2019-02-06T11:22:45.687Z,28.70
2019-02-06T11:25:15.404Z,27.27
2019-02-06T11:27:43.609Z,26.77
2019-02-06T11:30:14.797Z,27.87
2019-02-06T11:32:42.986Z,27.17
2019-02-06T11:35:11.252Z,29.60
2019-02-06T11:37:39.480Z,31.57
2019-02-06T11:40:15.386Z,31.33
2019-02-06T11:42:43.270Z,32.33
2019-02-06T11:45:16.969Z,31.10
2019-02-06T11:47:45.804Z,31.93
2019-02-06T11:50:17.365Z,30.30
2019-02-06T11:52:45.892Z,30.27
2019-02-06T11:55:16.830Z,30.67
2019-02-06T11:57:45.020Z,29.33
2019-02-06T12:00:17.778Z,29.43
2019-02-06T12:02:46.233Z,30.33
2019-02-06T12:05:14.476Z,31.17
2019-02-06T12:07:42.670Z,31.13
2019-02-06T12:10:16.574Z,30.57
2019-02-06T12:12:44.754Z,29.60
2019-02-06T12:15:19.188Z,31.27
2019-02-06T12:17:47.376Z,28.97
2019-02-06T12:20:21.564Z,33.07
2019-02-06T12:22:49.797Z,33.60
2019-02-06T12:25:18.520Z,34.20
2019-02-06T12:27:48.437Z,33.47
2019-02-06T12:30:22.231Z,44.03
2019-02-06T12:32:52.326Z,37.33
2019-02-06T12:35:20.393Z,34.07
2019-02-06T12:37:48.583Z,33.07
2019-02-06T12:40:21.673Z,31.73
2019-02-06T12:42:46.778Z,30.93
2019-02-06T12:45:17.325Z,30.30
2019-02-06T12:47:45.507Z,30.10
2019-02-06T12:50:23.279Z,31.87
2019-02-06T12:52:51.471Z,30.83
2019-02-06T12:55:22.571Z,30.70
2019-02-06T12:57:50.746Z,30.50
2019-02-06T13:00:24.561Z,28.50
2019-02-06T13:02:56.349Z,28.67
2019-02-06T13:05:22.975Z,28.30
2019-02-06T13:07:51.162Z,28.57
2019-02-06T13:10:33.234Z,30.00
2019-02-06T13:12:53.568Z,28.80
2019-02-06T13:15:21.761Z,27.50
2019-02-06T13:17:50.362Z,26.80
2019-02-06T13:20:21.288Z,28.27
2019-02-06T13:22:49.426Z,27.27
2019-02-06T13:25:17.612Z,26.97
2019-02-06T13:27:45.795Z,25.13
2019-02-06T13:30:17.238Z,23.97
2019-02-06T13:32:45.809Z,22.73
2019-02-06T13:35:18.036Z,23.93
2019-02-06T13:37:46.226Z,22.13
2019-02-06T13:40:17.511Z,24.30
2019-02-06T13:42:45.693Z,24.40
2019-02-06T13:45:16.975Z,25.27
2019-02-06T13:47:45.532Z,23.97
2019-02-06T13:50:22.095Z,25.07
2019-02-06T13:52:45.781Z,24.40
2019-02-06T13:55:14.802Z,26.00
2019-02-06T13:57:42.984Z,24.97
2019-02-06T14:00:22.522Z,22.90
2019-02-06T14:02:50.898Z,23.40
2019-02-06T14:05:24.387Z,23.73
2019-02-06T14:07:53.711Z,23.67
2019-02-06T14:10:24.199Z,24.67
2019-02-06T14:12:52.470Z,24.77
2019-02-06T14:15:23.430Z,28.57
2019-02-06T14:17:51.813Z,28.20
2019-02-06T14:20:22.216Z,24.40
2019-02-06T14:22:56.655Z,28.63
2019-02-06T14:25:33.784Z,24.40
2019-02-06T14:28:24.979Z,23.90
2019-02-06T14:31:22.042Z,22.77
2019-02-06T14:33:56.182Z,23.17
2019-02-06T14:36:56.310Z,23.83
2019-02-06T14:39:45.046Z,25.07
2019-02-06T14:42:34.185Z,25.17
2019-02-06T14:45:20.595Z,22.83
2019-02-06T14:47:57.630Z,32.53
2019-02-06T14:50:43.989Z,23.83
2019-02-06T14:53:21.143Z,24.93
2019-02-06T14:56:15.439Z,23.77
2019-02-06T14:58:52.671Z,25.77
2019-02-06T15:01:32.621Z,23.67
2019-02-06T15:04:15.803Z,25.07
2019-02-06T15:06:49.291Z,22.47
2019-02-06T15:09:32.056Z,25.27
2019-02-06T15:12:09.313Z,23.67
2019-02-06T15:14:56.042Z,21.90
2019-02-06T15:17:39.337Z,22.03
2019-02-06T15:20:19.412Z,23.27
2019-02-06T15:23:08.149Z,43.00
2019-02-06T15:25:57.677Z,21.70
2019-02-06T15:28:43.920Z,28.87
2019-02-06T15:31:30.395Z,45.97
2019-02-06T15:34:07.444Z,22.47
2019-02-06T15:36:50.663Z,22.67
2019-02-06T15:39:24.933Z,21.00
2019-02-06T15:41:56.419Z,23.03
2019-02-06T15:44:40.020Z,27.17
2019-02-06T15:47:14.124Z,23.97
2019-02-06T15:49:46.741Z,25.30
2019-02-06T15:52:24.117Z,28.60
2019-02-06T15:55:12.118Z,33.10
2019-02-06T15:57:46.249Z,26.57
2019-02-06T16:00:26.677Z,23.63
2019-02-06T16:03:00.690Z,22.07
2019-02-06T16:05:36.449Z,20.77
2019-02-06T16:08:13.708Z,21.60
2019-02-06T16:11:04.369Z,20.20
2019-02-06T16:13:38.772Z,19.57
2019-02-06T16:16:26.825Z,18.77
2019-02-06T16:19:13.131Z,21.40
2019-02-06T16:21:53.039Z,20.80
2019-02-06T16:24:32.736Z,21.10
2019-02-06T16:27:24.777Z,22.97
2019-02-06T16:30:14.262Z,22.47
2019-02-06T16:32:51.289Z,23.63
2019-02-06T16:35:22.816Z,22.27
2019-02-06T16:38:18.345Z,21.93
2019-02-06T16:40:52.326Z,22.97
2019-02-06T16:43:27.090Z,22.80
2019-02-06T16:46:19.891Z,22.47
2019-02-06T16:48:56.888Z,23.27
2019-02-06T16:51:37.000Z,23.37
2019-02-06T16:54:36.964Z,24.37
2019-02-06T16:57:14.103Z,30.73
2019-02-06T17:00:03.801Z,35.33
2019-02-06T17:02:56.604Z,26.90
2019-02-06T17:05:46.035Z,28.47
2019-02-06T17:08:23.240Z,24.97
2019-02-06T17:11:06.156Z,24.63
2019-02-06T17:13:40.489Z,23.23
2019-02-06T17:16:14.933Z,23.93
2019-02-06T17:18:52.152Z,30.60
2019-02-06T17:21:29.003Z,26.00
2019-02-06T17:24:12.598Z,26.07
2019-02-06T17:26:49.799Z,23.90
2019-02-06T17:29:36.317Z,24.37
2019-02-06T17:32:10.168Z,23.10
2019-02-06T17:34:47.381Z,26.60
2019-02-06T17:37:33.790Z,75.37
2019-02-06T17:40:32.141Z,28.37
2019-02-06T17:43:30.695Z,26.53
2019-02-06T17:46:21.366Z,27.47
2019-02-06T17:49:10.537Z,27.23
2019-02-06T17:51:41.973Z,25.10
2019-02-06T17:54:19.304Z,25.13
2019-02-06T17:56:47.526Z,23.53
2019-02-06T17:59:15.716Z,20.53
2019-02-06T18:01:43.903Z,24.07
2019-02-06T18:04:12.113Z,22.10
2019-02-06T18:06:41.269Z,21.23
2019-02-06T18:09:11.198Z,22.30
2019-02-06T18:11:39.383Z,23.57
2019-02-06T18:14:07.583Z,22.27
2019-02-06T18:16:35.761Z,22.73
2019-02-06T18:19:04.044Z,24.00
2019-02-06T18:21:32.226Z,23.03
2019-02-06T18:24:00.419Z,23.33
2019-02-06T18:26:29.156Z,20.40
2019-02-06T18:28:57.345Z,20.27
2019-02-06T18:31:25.525Z,19.03
2019-02-06T18:33:53.712Z,27.87
2019-02-06T18:36:21.902Z,23.03
2019-02-06T18:38:52.051Z,17.97
2019-02-06T18:41:20.242Z,19.63
2019-02-06T18:43:48.438Z,19.70
2019-02-06T18:46:16.906Z,24.07
2019-02-06T18:48:45.098Z,20.87
2019-02-06T18:51:15.265Z,21.90
2019-02-06T18:53:43.448Z,21.80
2019-02-06T18:56:14.715Z,30.03
2019-02-06T18:58:43.901Z,32.47
2019-02-06T19:01:12.097Z,24.70
2019-02-06T19:03:42.742Z,28.10
2019-02-06T19:06:11.390Z,33.83
2019-02-06T19:08:40.090Z,24.60
2019-02-06T19:11:08.468Z,21.37
2019-02-06T19:13:36.639Z,20.37
2019-02-06T19:16:04.837Z,22.37
2019-02-06T19:18:33.014Z,21.57
2019-02-06T19:21:01.201Z,20.77
2019-02-06T19:23:29.388Z,21.87
2019-02-06T19:25:57.853Z,22.90
2019-02-06T19:28:26.067Z,22.77
2019-02-06T19:30:55.595Z,22.57
2019-02-06T19:33:23.892Z,23.50
2019-02-06T19:35:52.078Z,23.97
2019-02-06T19:38:20.257Z,21.43
2019-02-06T19:40:48.440Z,22.83
2019-02-06T19:43:16.820Z,22.07
2019-02-06T19:45:44.996Z,22.07
2019-02-06T19:48:16.326Z,22.93
2019-02-06T19:50:44.627Z,22.27
2019-02-06T19:53:12.806Z,20.70
2019-02-06T19:55:40.990Z,20.47
2019-02-06T19:58:10.208Z,22.73
2019-02-06T20:00:38.403Z,22.87
2019-02-06T20:03:08.181Z,23.37
2019-02-06T20:05:36.553Z,21.90
2019-02-06T20:08:05.475Z,22.40
2019-02-06T20:10:45.725Z,22.77
2019-02-06T20:13:14.720Z,21.80
2019-02-06T20:15:42.985Z,21.03
2019-02-06T20:18:14.403Z,21.77
2019-02-06T20:20:42.677Z,20.87
2019-02-06T20:23:10.864Z,21.87
2019-02-06T20:25:39.041Z,21.93
2019-02-06T20:28:07.292Z,21.47
2019-02-06T20:30:35.734Z,20.83
2019-02-06T20:33:03.924Z,21.10
2019-02-06T20:35:32.183Z,20.07
2019-02-06T20:38:00.367Z,20.60
2019-02-06T20:40:33.718Z,19.30
2019-02-06T20:43:01.903Z,19.50
2019-02-06T20:45:30.083Z,18.97
2019-02-06T20:47:59.191Z,18.73
2019-02-06T20:50:30.763Z,19.17
2019-02-06T20:52:59.322Z,21.43
2019-02-06T20:55:27.501Z,20.27
2019-02-06T20:57:55.693Z,22.57
2019-02-06T21:00:33.130Z,21.40
2019-02-06T21:03:01.384Z,23.13
2019-02-06T21:05:29.565Z,22.73
2019-02-06T21:07:58.133Z,24.00
2019-02-06T21:10:31.583Z,24.27
2019-02-06T21:12:59.938Z,24.57
2019-02-06T21:15:28.160Z,23.93
2019-02-06T21:17:56.360Z,22.67
2019-02-06T21:20:25.075Z,23.27
2019-02-06T21:22:53.263Z,23.27
2019-02-06T21:25:23.065Z,24.97
2019-02-06T21:27:51.534Z,23.13
2019-02-06T21:30:28.646Z,23.80
2019-02-06T21:32:56.831Z,24.27
2019-02-06T21:35:25.023Z,21.60
2019-02-06T21:37:53.231Z,24.83
2019-02-06T21:40:32.803Z,24.27
2019-02-06T21:43:01.077Z,23.43
2019-02-06T21:45:29.343Z,24.20
2019-02-06T21:47:57.532Z,21.80
2019-02-06T21:50:25.786Z,22.83
2019-02-06T21:52:55.444Z,22.77
2019-02-06T21:55:25.042Z,24.67
2019-02-06T21:57:53.229Z,25.27
2019-02-06T22:00:26.849Z,25.53
2019-02-06T22:02:55.031Z,21.03
2019-02-06T22:05:29.306Z,23.83
2019-02-06T22:08:06.418Z,22.70
2019-02-06T22:10:34.610Z,23.23
2019-02-06T22:13:02.809Z,23.33
2019-02-06T22:15:31.925Z,23.07
2019-02-06T22:18:00.170Z,21.90
2019-02-06T22:20:28.629Z,21.50
2019-02-06T22:22:57.734Z,21.43
2019-02-06T22:25:25.947Z,21.57
2019-02-06T22:27:54.143Z,22.07
2019-02-06T22:30:29.600Z,23.07
2019-02-06T22:32:57.797Z,22.00
2019-02-06T22:35:26.174Z,22.70
2019-02-06T22:37:54.363Z,23.33
2019-02-06T22:40:27.069Z,22.90
2019-02-06T22:42:55.260Z,23.13
2019-02-06T22:45:29.494Z,23.80
2019-02-06T22:47:57.677Z,21.27
2019-02-06T22:50:27.759Z,23.37
2019-02-06T22:52:55.897Z,23.60
2019-02-06T22:55:24.087Z,22.47
2019-02-06T22:57:52.274Z,23.40
2019-02-06T23:00:47.952Z,22.33
2019-02-06T23:03:19.563Z,22.43
2019-02-06T23:05:47.854Z,23.17
2019-02-06T23:08:16.019Z,23.67
2019-02-06T23:10:44.213Z,23.20
2019-02-06T23:13:12.394Z,22.10
2019-02-06T23:15:40.586Z,22.73
2019-02-06T23:18:08.766Z,20.93
2019-02-06T23:20:37.056Z,22.10
2019-02-06T23:23:05.254Z,21.07
2019-02-06T23:25:33.441Z,19.90
2019-02-06T23:28:01.627Z,21.47
2019-02-06T23:30:30.117Z,20.03
2019-02-06T23:32:58.299Z,21.73
2019-02-06T23:35:26.478Z,20.93
2019-02-06T23:37:54.681Z,20.33
2019-02-06T23:40:22.872Z,20.93
2019-02-06T23:42:51.052Z,21.83
2019-02-06T23:45:19.257Z,21.47
2019-02-06T23:47:47.438Z,20.60
2019-02-06T23:50:17.255Z,22.20
2019-02-06T23:52:45.443Z,18.70
2019-02-06T23:55:13.624Z,19.43
2019-02-06T23:57:41.804Z,18.97
